Time;durP1;ratioP1;P1;durP2;ratioP2;P2;SDS_P1;SDS_P2;PMS_P1;PMS_P2;Temp;Humidity;BMP_temperature;BMP_pressure;BME280_temperature;BME280_humidity;BME280_pressure;Samples;Min_cycle;Max_cycle;Signal;HPM_P1;HPM_P2
2023/12/26 00:01:37;;;;;;;2.53;1.97;;;;;;;7.19;100.00;153206.63;5009160;28;20455;-85
2023/12/26 00:04:04;;;;;;;2.43;1.60;;;;;;;7.13;100.00;153192.41;5010051;28;20858;-85
2023/12/26 00:06:30;;;;;;;3.60;1.90;;;;;;;7.10;100.00;153184.66;5027831;28;20467;-85
2023/12/26 00:08:57;;;;;;;2.00;1.60;;;;;;;7.10;100.00;153184.66;5005809;28;20838;-85
2023/12/26 00:11:25;;;;;;;1.80;1.57;;;;;;;7.09;100.00;153182.09;5031135;28;20456;-85
2023/12/26 00:13:54;;;;;;;1.97;1.57;;;;;;;7.06;100.00;153174.34;5028048;28;20571;-84
2023/12/26 00:16:21;;;;;;;2.97;2.00;;;;;;;7.07;100.00;153175.66;5013166;28;20452;-85
2023/12/26 00:18:47;;;;;;;2.67;1.80;;;;;;;7.02;100.00;153164.00;5027099;28;20826;-84
2023/12/26 00:21:14;;;;;;;2.30;1.63;;;;;;;7.00;100.00;153158.84;5030639;28;20460;-85
2023/12/26 00:23:40;;;;;;;2.53;2.10;;;;;;;7.00;100.00;153157.53;5040736;28;20459;-85
2023/12/26 00:26:06;;;;;;;2.67;1.67;;;;;;;6.97;100.00;153151.09;5007590;28;20463;-84
2023/12/26 00:28:34;;;;;;;2.40;1.90;;;;;;;6.96;100.00;153148.53;5027729;28;20451;-85
2023/12/26 00:31:01;;;;;;;2.13;1.53;;;;;;;6.94;100.00;153143.34;5045224;28;20530;-84
2023/12/26 00:33:28;;;;;;;2.73;1.73;;;;;;;6.95;100.00;153144.63;5011927;28;20476;-84
2023/12/26 00:35:58;;;;;;;3.93;2.00;;;;;;;6.90;100.00;153133.03;5026334;28;20456;-84
2023/12/26 00:38:24;;;;;;;4.50;1.90;;;;;;;6.87;100.00;153123.97;5015998;28;20488;-85
2023/12/26 00:40:51;;;;;;;3.67;2.10;;;;;;;6.86;100.00;153122.69;5018239;28;20456;-85
2023/12/26 00:43:18;;;;;;;2.03;1.30;;;;;;;6.85;100.00;153120.13;5030015;28;20458;-85
2023/12/26 00:45:45;;;;;;;3.90;1.60;;;;;;;6.86;100.00;153122.69;5032606;28;20814;-84
2023/12/26 00:48:13;;;;;;;2.10;1.30;;;;;;;6.86;100.00;153122.69;5030905;28;20977;-84
2023/12/26 00:50:41;;;;;;;2.87;1.63;;;;;;;6.82;100.00;153112.38;5003959;28;20817;-85
2023/12/26 00:53:09;;;;;;;3.60;1.60;;;;;;;6.80;100.00;153107.22;5015576;28;20501;-85
2023/12/26 00:55:35;;;;;;;1.97;1.40;;;;;;;6.76;100.00;153096.88;5028264;28;20572;-85
2023/12/26 00:58:02;;;;;;;4.13;1.93;;;;;;;6.75;100.00;153094.31;5030938;28;20482;-85
2023/12/26 01:00:29;;;;;;;1.83;1.43;;;;;;;6.75;100.00;153094.31;5015544;28;20928;-85
2023/12/26 01:02:57;;;;;;;2.50;1.50;;;;;;;6.74;100.00;153091.72;5006082;28;21060;-84
2023/12/26 01:05:23;;;;;;;3.20;1.83;;;;;;;6.77;100.00;153099.47;5011483;28;20448;-85
2023/12/26 01:07:49;;;;;;;3.40;1.90;;;;;;;6.74;100.00;153093.03;5008115;28;20993;-85
2023/12/26 01:10:16;;;;;;;5.03;1.53;;;;;;;6.69;100.00;153080.13;5022512;28;20429;-85
2023/12/26 01:12:43;;;;;;;1.77;1.53;;;;;;;6.68;100.00;153076.22;5036511;28;20825;-85
2023/12/26 01:15:10;;;;;;;1.80;1.40;;;;;;;6.67;100.00;153074.91;5030291;28;20456;-84
2023/12/26 01:17:37;;;;;;;2.93;1.70;;;;;;;6.67;100.00;153073.66;5037607;28;20951;-85
2023/12/26 01:20:06;;;;;;;7.20;1.77;;;;;;;6.66;100.00;153072.38;4991596;28;20471;-84
2023/12/26 01:22:32;;;;;;;3.87;1.90;;;;;;;6.65;100.00;153068.47;5025680;28;20459;-85
2023/12/26 01:24:59;;;;;;;2.67;1.70;;;;;;;6.64;100.00;153065.91;5030475;28;20461;-85
2023/12/26 01:27:25;;;;;;;3.80;1.87;;;;;;;6.60;100.00;153056.88;5014709;28;21045;-85
2023/12/26 01:29:52;;;;;;;2.33;1.90;;;;;;;6.61;100.00;153058.16;4977084;28;20456;-85
2023/12/26 01:32:19;;;;;;;2.97;1.77;;;;;;;6.61;100.00;153058.16;5029403;28;20451;-85
2023/12/26 01:34:46;;;;;;;3.23;1.70;;;;;;;6.63;100.00;153063.31;5028251;28;20479;-85
2023/12/26 01:37:14;;;;;;;3.17;1.20;;;;;;;6.64;100.00;153065.91;5007978;28;20459;-85
2023/12/26 01:39:41;;;;;;;2.03;1.53;;;;;;;6.60;100.00;153055.56;5016148;28;20463;-85
2023/12/26 01:42:08;;;;;;;2.80;2.10;;;;;;;6.64;100.00;153065.91;5027702;28;20462;-85
2023/12/26 01:44:35;;;;;;;1.87;1.50;;;;;;;6.61;100.00;153058.16;5009418;28;20553;-85
2023/12/26 01:47:04;;;;;;;1.77;1.47;;;;;;;6.60;100.00;153055.56;5027740;28;20946;-85
2023/12/26 01:49:30;;;;;;;2.27;1.50;;;;;;;6.60;100.00;153055.56;5004988;28;20451;-85
2023/12/26 01:51:58;;;;;;;2.40;1.70;;;;;;;6.61;100.00;153058.16;5028976;28;20463;-85
2023/12/26 01:54:31;;;;;;;2.40;1.70;;;;;;;6.62;100.00;153062.03;5026961;28;20499;-85
2023/12/26 01:56:58;;;;;;;2.63;2.07;;;;;;;6.63;100.00;153063.31;5026540;28;20833;-85
2023/12/26 01:59:24;;;;;;;3.37;1.50;;;;;;;6.59;100.00;153053.00;4989991;28;20467;-86
2023/12/26 02:01:51;;;;;;;3.53;1.77;;;;;;;6.56;100.00;153045.25;5017845;28;20447;-86
2023/12/26 02:04:18;;;;;;;3.20;1.47;;;;;;;6.52;100.00;153034.91;5016525;28;20488;-85
2023/12/26 02:06:45;;;;;;;4.07;2.07;;;;;;;6.51;100.00;153033.63;5002247;28;20456;-84
2023/12/26 02:09:12;;;;;;;1.67;1.40;;;;;;;6.49;100.00;153027.16;4987085;28;20553;-85
2023/12/26 02:11:40;;;;;;;2.10;1.43;;;;;;;6.49;100.00;153027.16;4986205;28;20535;-85
2023/12/26 02:14:07;;;;;;;3.47;1.87;;;;;;;6.51;100.00;153033.63;4980324;28;20783;-85
2023/12/26 02:16:35;;;;;;;2.80;1.30;;;;;;;6.51;100.00;153033.63;4993952;28;20476;-84
2023/12/26 02:19:02;;;;;;;2.60;1.40;;;;;;;6.53;100.00;153037.50;5003642;28;20515;-85
2023/12/26 02:21:28;;;;;;;2.50;1.97;;;;;;;6.51;100.00;153032.38;5006698;28;20451;-84
2023/12/26 02:23:56;;;;;;;2.17;1.60;;;;;;;6.49;100.00;153027.16;4981455;28;20448;-85
2023/12/26 02:26:25;;;;;;;2.10;1.33;;;;;;;6.48;100.00;153025.91;4978682;28;20457;-84
2023/12/26 02:28:53;;;;;;;2.37;1.50;;;;;;;6.49;100.00;153027.16;5004291;28;20456;-85
2023/12/26 02:31:19;;;;;;;2.67;2.00;;;;;;;6.47;100.00;153022.00;4988460;28;20456;-84
2023/12/26 02:33:47;;;;;;;1.60;1.27;;;;;;;6.49;100.00;153027.16;5001570;28;20459;-84
2023/12/26 02:36:14;;;;;;;2.40;1.67;;;;;;;6.49;100.00;153027.16;5003093;28;20452;-85
2023/12/26 02:38:41;;;;;;;2.40;1.60;;;;;;;6.50;100.00;153029.75;5005373;28;20484;-85
2023/12/26 02:41:08;;;;;;;2.10;1.40;;;;;;;6.55;100.00;153043.97;4989730;28;20476;-85
2023/12/26 02:43:35;;;;;;;2.33;1.67;;;;;;;6.56;100.00;153046.56;4997970;28;20457;-85
2023/12/26 02:46:02;;;;;;;4.13;1.40;;;;;;;6.56;100.00;153045.25;5008354;28;20461;-85
2023/12/26 02:48:28;;;;;;;4.00;1.53;;;;;;;6.58;100.00;153050.41;5001699;28;20452;-85
2023/12/26 02:50:55;;;;;;;2.77;1.80;;;;;;;6.60;100.00;153055.56;5001244;28;21015;-85
2023/12/26 02:53:21;;;;;;;2.40;1.53;;;;;;;6.60;100.00;153056.88;4997781;28;20464;-85
2023/12/26 02:55:50;;;;;;;1.60;1.50;;;;;;;6.59;100.00;153054.28;5007329;28;20946;-85
2023/12/26 02:58:17;;;;;;;3.63;1.53;;;;;;;6.61;100.00;153058.16;5008735;28;20478;-85
2023/12/26 03:00:44;;;;;;;1.70;1.00;;;;;;;6.59;100.00;153054.28;5000690;28;20460;-85
2023/12/26 03:03:11;;;;;;;1.53;1.30;;;;;;;6.58;100.00;153051.72;4997883;28;20491;-85
2023/12/26 03:05:37;;;;;;;1.93;1.30;;;;;;;6.60;100.00;153056.88;4996804;28;20465;-84
2023/12/26 03:08:05;;;;;;;2.33;1.40;;;;;;;6.58;100.00;153051.72;4986590;28;20472;-85
2023/12/26 03:10:31;;;;;;;2.37;1.50;;;;;;;6.57;100.00;153049.13;5010783;28;20534;-85
2023/12/26 03:12:58;;;;;;;3.20;2.00;;;;;;;6.57;100.00;153049.13;4997927;28;20530;-85
2023/12/26 03:15:26;;;;;;;1.67;1.50;;;;;;;6.56;100.00;153046.56;5000459;28;20463;-85
2023/12/26 03:17:53;;;;;;;2.50;1.57;;;;;;;6.58;100.00;153051.72;5026346;28;20467;-85
2023/12/26 03:20:19;;;;;;;2.37;1.33;;;;;;;6.60;100.00;153055.56;5010744;28;20520;-85
2023/12/26 03:22:46;;;;;;;2.10;1.70;;;;;;;6.58;100.00;153050.41;4978885;28;20440;-85
2023/12/26 03:25:13;;;;;;;2.20;1.57;;;;;;;6.59;100.00;153054.28;4999841;28;20457;-85
2023/12/26 03:27:39;;;;;;;2.57;1.70;;;;;;;6.60;100.00;153056.88;5006836;28;20958;-85
2023/12/26 03:30:07;;;;;;;5.43;1.87;;;;;;;6.61;100.00;153058.16;5006437;28;20457;-85
2023/12/26 03:32:35;;;;;;;4.27;2.17;;;;;;;6.60;100.00;153055.56;4988399;28;20496;-85
2023/12/26 03:35:02;;;;;;;2.97;1.50;;;;;;;6.61;100.00;153058.16;5018105;28;20858;-85
2023/12/26 03:37:28;;;;;;;1.97;1.30;;;;;;;6.60;100.00;153055.56;4991899;28;20498;-85
2023/12/26 03:39:55;;;;;;;1.80;1.17;;;;;;;6.62;100.00;153060.72;4994919;28;20464;-85
2023/12/26 03:42:21;;;;;;;2.83;1.53;;;;;;;6.61;100.00;153058.16;5003370;28;20465;-85
2023/12/26 03:44:48;;;;;;;1.93;1.50;;;;;;;6.60;100.00;153056.88;5016065;28;20454;-85
2023/12/26 03:47:15;;;;;;;3.20;1.90;;;;;;;6.63;100.00;153063.31;4980520;28;20904;-83
2023/12/26 03:49:43;;;;;;;3.87;1.30;;;;;;;6.62;100.00;153062.03;5011314;28;20487;-84
2023/12/26 03:52:10;;;;;;;4.30;1.87;;;;;;;6.65;100.00;153068.47;4997400;28;21010;-85
2023/12/26 03:54:36;;;;;;;2.90;1.50;;;;;;;6.67;100.00;153073.66;4991059;28;20506;-85
2023/12/26 03:57:04;;;;;;;3.40;1.73;;;;;;;6.69;100.00;153078.81;4993044;28;20448;-85
2023/12/26 03:59:31;;;;;;;3.30;1.40;;;;;;;6.72;100.00;153086.56;5011271;28;20514;-85
2023/12/26 04:01:57;;;;;;;2.30;1.77;;;;;;;6.71;100.00;153083.97;5006621;28;20460;-85
2023/12/26 04:04:24;;;;;;;2.70;1.47;;;;;;;6.70;100.00;153081.38;5018662;28;20468;-85
2023/12/26 04:06:52;;;;;;;2.47;1.30;;;;;;;6.73;100.00;153089.13;5027574;28;20957;-85
2023/12/26 04:09:19;;;;;;;1.90;1.50;;;;;;;6.74;100.00;153093.03;5008133;28;20437;-85
2023/12/26 04:11:46;;;;;;;2.20;1.43;;;;;;;6.77;100.00;153098.19;5023741;28;20529;-85
2023/12/26 04:14:13;;;;;;;2.00;1.50;;;;;;;6.78;100.00;153102.03;5018842;28;20460;-85
2023/12/26 04:16:40;;;;;;;2.37;1.50;;;;;;;6.78;100.00;153102.03;5030802;28;20452;-85
2023/12/26 04:19:06;;;;;;;3.97;1.50;;;;;;;6.79;100.00;153104.63;5006167;28;20502;-85
2023/12/26 04:21:33;;;;;;;2.87;1.50;;;;;;;6.80;100.00;153107.22;5026756;28;20455;-84
2023/12/26 04:24:01;;;;;;;3.07;1.57;;;;;;;6.81;100.00;153109.78;5029881;28;20566;-85
2023/12/26 04:26:27;;;;;;;3.80;1.83;;;;;;;6.84;100.00;153117.53;5014097;28;20961;-85
2023/12/26 04:28:54;;;;;;;2.80;1.30;;;;;;;6.86;100.00;153121.44;5011269;28;20449;-84
2023/12/26 04:31:20;;;;;;;4.50;1.33;;;;;;;6.87;100.00;153125.28;5010777;28;20451;-84
2023/12/26 04:33:47;;;;;;;2.87;1.43;;;;;;;6.84;100.00;153117.53;5023736;28;20451;-83
2023/12/26 04:36:14;;;;;;;2.90;1.47;;;;;;;6.83;100.00;153114.94;5024144;28;20457;-84
2023/12/26 04:38:41;;;;;;;3.13;1.50;;;;;;;6.87;100.00;153125.28;5027044;28;20456;-83
2023/12/26 04:41:12;;;;;;;3.00;1.70;;;;;;;6.87;100.00;153123.97;5011072;28;20456;-84
2023/12/26 04:43:38;;;;;;;2.80;1.50;;;;;;;6.86;100.00;153122.69;5034720;28;20479;-84
2023/12/26 04:46:05;;;;;;;5.20;1.63;;;;;;;6.87;100.00;153125.28;4995314;28;20586;-84
2023/12/26 04:48:32;;;;;;;1.70;1.37;;;;;;;6.89;100.00;153130.44;5026749;28;20460;-84
2023/12/26 04:50:58;;;;;;;3.30;1.50;;;;;;;6.88;100.00;153126.59;5024654;28;20543;-84
2023/12/26 04:53:25;;;;;;;4.20;1.10;;;;;;;6.86;100.00;153122.69;5021848;28;20460;-84
2023/12/26 04:55:52;;;;;;;2.20;1.47;;;;;;;6.87;100.00;153125.28;4991946;28;20470;-84
2023/12/26 04:58:20;;;;;;;3.47;1.97;;;;;;;6.90;100.00;153133.03;5030558;28;20483;-84
2023/12/26 05:00:46;;;;;;;2.33;1.50;;;;;;;6.90;100.00;153133.03;5028128;28;20475;-84
2023/12/26 05:03:13;;;;;;;5.67;1.97;;;;;;;6.91;100.00;153135.59;5017515;28;20587;-83
2023/12/26 05:05:40;;;;;;;4.07;1.80;;;;;;;6.92;100.00;153136.88;4983621;28;20476;-84
2023/12/26 05:08:07;;;;;;;2.80;1.70;;;;;;;6.95;100.00;153144.63;4982165;28;20473;-84
2023/12/26 05:10:33;;;;;;;2.20;1.53;;;;;;;6.95;100.00;153145.94;5004304;28;20456;-83
2023/12/26 05:13:00;;;;;;;2.07;1.50;;;;;;;6.94;100.00;153143.34;5002828;28;20603;-84
2023/12/26 05:15:28;;;;;;;2.40;1.70;;;;;;;6.93;100.00;153140.78;4991411;28;20488;-84
2023/12/26 05:17:55;;;;;;;6.10;1.90;;;;;;;6.96;100.00;153147.25;4997047;28;20461;-83
2023/12/26 05:20:21;;;;;;;5.93;2.30;;;;;;;6.99;100.00;153155.00;5002175;28;20567;-85
2023/12/26 05:22:49;;;;;;;2.60;2.00;;;;;;;6.94;100.00;153143.34;4968680;28;20992;-85
2023/12/26 05:25:16;;;;;;;2.30;1.60;;;;;;;6.97;100.00;153151.09;4989306;28;20518;-85
2023/12/26 05:27:43;;;;;;;3.87;1.53;;;;;;;6.98;100.00;153152.38;5009686;28;20502;-85
2023/12/26 05:30:10;;;;;;;3.70;1.77;;;;;;;6.98;100.00;153152.38;5009439;28;20459;-85
2023/12/26 05:32:38;;;;;;;2.40;1.63;;;;;;;6.98;100.00;153153.69;4994429;28;20492;-85
2023/12/26 05:35:06;;;;;;;3.03;1.67;;;;;;;6.98;100.00;153153.69;4999267;28;20460;-83
2023/12/26 05:37:33;;;;;;;3.83;1.57;;;;;;;7.00;100.00;153158.84;4993472;28;20465;-83
2023/12/26 05:39:59;;;;;;;5.67;1.90;;;;;;;7.00;100.00;153158.84;4987977;28;20483;-83
2023/12/26 05:42:26;;;;;;;2.23;1.83;;;;;;;6.97;100.00;153149.78;5024546;28;20456;-83
2023/12/26 05:44:52;;;;;;;2.77;1.50;;;;;;;6.97;100.00;153151.09;4991459;28;20461;-83
2023/12/26 05:47:20;;;;;;;5.67;1.63;;;;;;;6.98;100.00;153152.38;4964183;28;20457;-83
2023/12/26 05:49:48;;;;;;;2.63;1.70;;;;;;;6.97;100.00;153149.78;5004526;28;20460;-83
2023/12/26 05:52:15;;;;;;;2.13;1.30;;;;;;;6.96;100.00;153147.25;5007624;28;20472;-83
2023/12/26 05:54:41;;;;;;;3.10;2.23;;;;;;;6.99;100.00;153156.25;4988968;28;20467;-84
2023/12/26 05:57:09;;;;;;;2.63;1.63;;;;;;;6.98;100.00;153152.38;4980014;28;20467;-84
2023/12/26 05:59:35;;;;;;;3.30;1.87;;;;;;;6.97;100.00;153149.78;5000765;28;20831;-84
2023/12/26 06:02:02;;;;;;;2.53;1.50;;;;;;;6.96;100.00;153148.53;4980339;28;20460;-84
2023/12/26 06:04:28;;;;;;;4.13;1.70;;;;;;;6.95;100.00;153144.63;4985407;28;20480;-83
2023/12/26 06:06:56;;;;;;;3.00;1.93;;;;;;;6.94;100.00;153142.03;4992773;28;20872;-83
2023/12/26 06:09:25;;;;;;;5.30;1.87;;;;;;;6.93;100.00;153140.78;4967532;28;20454;-83
2023/12/26 06:11:52;;;;;;;3.67;2.00;;;;;;;6.95;100.00;153145.94;4994432;28;20461;-83
2023/12/26 06:14:18;;;;;;;3.10;2.00;;;;;;;6.98;100.00;153153.69;4996821;28;20459;-83
2023/12/26 06:16:45;;;;;;;3.00;2.03;;;;;;;6.93;100.00;153139.47;4978995;28;20469;-83
2023/12/26 06:19:12;;;;;;;5.47;2.50;;;;;;;6.90;100.00;153133.03;4983696;28;20472;-83
2023/12/26 06:21:39;;;;;;;3.33;2.20;;;;;;;6.92;100.00;153138.19;4987066;28;20465;-83
2023/12/26 06:24:09;;;;;;;2.30;1.50;;;;;;;6.94;100.00;153142.03;4986410;28;20487;-83
2023/12/26 06:26:35;;;;;;;2.40;2.13;;;;;;;6.93;100.00;153140.78;4979666;28;20830;-83
2023/12/26 06:29:02;;;;;;;2.07;1.47;;;;;;;6.94;100.00;153143.34;4983878;28;20788;-83
2023/12/26 06:31:29;;;;;;;3.67;1.70;;;;;;;6.92;100.00;153136.88;4987913;28;20455;-83
2023/12/26 06:33:55;;;;;;;3.80;2.43;;;;;;;6.95;100.00;153144.63;4977458;28;20453;-83
2023/12/26 06:36:22;;;;;;;3.23;1.60;;;;;;;6.96;100.00;153147.25;4979277;28;20458;-83
2023/12/26 06:38:49;;;;;;;2.43;1.67;;;;;;;6.99;100.00;153155.00;4994544;28;20453;-84
2023/12/26 06:41:16;;;;;;;2.77;2.10;;;;;;;6.99;100.00;153155.00;4982246;28;20582;-83
2023/12/26 06:43:43;;;;;;;3.03;1.87;;;;;;;6.98;100.00;153152.38;4979991;28;20492;-84
2023/12/26 06:46:09;;;;;;;4.30;2.70;;;;;;;6.98;100.00;153153.69;4995135;28;20461;-83
2023/12/26 06:48:39;;;;;;;1.93;1.57;;;;;;;7.00;100.00;153157.53;4984174;28;20464;-83
2023/12/26 06:51:06;;;;;;;4.47;2.13;;;;;;;6.97;100.00;153151.09;4991974;28;20453;-83
2023/12/26 06:53:33;;;;;;;3.17;1.60;;;;;;;7.00;100.00;153158.84;5012521;28;20460;-84
2023/12/26 06:56:00;;;;;;;3.47;1.70;;;;;;;7.01;100.00;153160.13;4985473;28;20999;-85
2023/12/26 06:58:28;;;;;;;4.33;1.73;;;;;;;7.05;100.00;153171.75;4979863;28;20560;-85
2023/12/26 07:00:55;;;;;;;2.83;2.10;;;;;;;7.05;100.00;153170.44;4975633;28;20485;-83
2023/12/26 07:03:21;;;;;;;5.80;1.90;;;;;;;7.05;100.00;153170.44;4992220;28;21001;-83
2023/12/26 07:05:48;;;;;;;3.20;1.83;;;;;;;7.04;100.00;153169.16;4997024;28;20690;-83
2023/12/26 07:08:14;;;;;;;3.37;1.97;;;;;;;7.05;100.00;153170.44;5016343;28;21001;-83
2023/12/26 07:10:41;;;;;;;3.00;2.10;;;;;;;7.02;100.00;153162.69;5015715;28;20459;-84
2023/12/26 07:13:08;;;;;;;5.10;1.57;;;;;;;7.00;100.00;153158.84;5013962;28;20459;-85
2023/12/26 07:15:35;;;;;;;2.20;1.70;;;;;;;7.03;100.00;153165.28;5001898;28;20558;-86
2023/12/26 07:18:02;;;;;;;2.03;1.63;;;;;;;7.06;100.00;153173.03;5000847;28;20464;-85
2023/12/26 07:20:28;;;;;;;4.80;2.13;;;;;;;7.04;100.00;153169.16;4996360;28;20469;-84
2023/12/26 07:22:55;;;;;;;2.83;1.67;;;;;;;7.07;100.00;153176.91;5014562;28;20468;-84
2023/12/26 07:25:22;;;;;;;3.33;1.80;;;;;;;7.07;100.00;153175.66;5015598;28;21006;-84
2023/12/26 07:27:48;;;;;;;3.23;1.70;;;;;;;7.03;100.00;153166.59;5013871;28;20574;-84
2023/12/26 07:30:15;;;;;;;5.23;2.13;;;;;;;7.03;100.00;153166.59;5014195;28;20460;-84
2023/12/26 07:32:43;;;;;;;2.73;2.03;;;;;;;6.99;100.00;153156.25;5027838;28;20456;-84
2023/12/26 07:35:09;;;;;;;2.90;1.83;;;;;;;7.00;100.00;153158.84;5017600;28;21056;-84
2023/12/26 07:37:35;;;;;;;4.00;1.97;;;;;;;6.99;100.00;153155.00;5015782;28;20922;-85
2023/12/26 07:40:03;;;;;;;3.20;1.90;;;;;;;7.00;100.00;153158.84;4990879;28;21031;-84
2023/12/26 07:42:30;;;;;;;5.17;1.80;;;;;;;7.01;100.00;153160.13;5014762;28;20488;-84
2023/12/26 07:44:56;;;;;;;3.10;1.83;;;;;;;7.00;100.00;153157.53;5015944;28;20493;-84
2023/12/26 07:47:22;;;;;;;2.83;2.20;;;;;;;7.01;100.00;153161.44;5012451;28;20463;-84
2023/12/26 07:49:51;;;;;;;2.53;2.03;;;;;;;7.01;100.00;153161.44;5016564;28;20869;-84
2023/12/26 07:52:18;;;;;;;3.23;1.83;;;;;;;7.01;100.00;153161.44;5016383;28;20459;-84
2023/12/26 07:54:44;;;;;;;9.03;2.40;;;;;;;6.99;100.00;153156.25;5018740;28;21138;-84
2023/12/26 07:57:11;;;;;;;4.10;1.70;;;;;;;7.02;100.00;153162.69;5019978;28;20816;-84
2023/12/26 07:59:37;;;;;;;3.07;1.60;;;;;;;7.01;100.00;153160.13;5020900;28;20453;-84
2023/12/26 08:02:04;;;;;;;3.13;2.07;;;;;;;7.01;100.00;153160.13;5020236;28;20542;-84
2023/12/26 08:04:30;;;;;;;3.27;1.87;;;;;;;7.00;100.00;153158.84;5036043;28;20498;-83
2023/12/26 08:06:58;;;;;;;3.60;1.60;;;;;;;7.02;100.00;153164.00;5018636;28;20467;-83
2023/12/26 08:09:25;;;;;;;4.60;1.77;;;;;;;7.03;100.00;153165.28;5021053;28;20453;-83
2023/12/26 08:11:51;;;;;;;3.20;1.77;;;;;;;7.06;100.00;153173.03;5019422;28;20852;-83
2023/12/26 08:14:18;;;;;;;1.90;1.53;;;;;;;7.04;100.00;153167.91;5018338;28;20546;-83
2023/12/26 08:16:45;;;;;;;2.90;2.30;;;;;;;7.03;100.00;153166.59;5017627;28;20487;-83
2023/12/26 08:19:12;;;;;;;4.10;1.93;;;;;;;7.04;100.00;153167.91;5018441;28;20443;-75
2023/12/26 08:21:38;;;;;;;2.50;1.90;;;;;;;7.07;100.00;153176.91;5020688;28;21042;-75
2023/12/26 08:24:08;;;;;;;3.33;1.70;;;;;;;7.08;100.00;153179.50;5001233;28;20447;-75
2023/12/26 08:26:34;;;;;;;4.50;2.03;;;;;;;7.10;100.00;153184.66;5018048;28;20467;-75
2023/12/26 08:29:01;;;;;;;3.67;1.60;;;;;;;7.12;100.00;153189.81;5017496;28;20798;-75
2023/12/26 08:31:28;;;;;;;2.23;2.00;;;;;;;7.14;100.00;153195.00;5018948;28;20869;-75
2023/12/26 08:33:54;;;;;;;3.10;2.20;;;;;;;7.17;100.00;153201.47;5018568;28;20447;-75
2023/12/26 08:36:21;;;;;;;3.43;1.77;;;;;;;7.18;100.00;153205.31;5015613;28;20846;-75
2023/12/26 08:38:47;;;;;;;6.57;2.20;;;;;;;7.22;100.00;153214.38;5019974;28;20467;-75
2023/12/26 08:41:15;;;;;;;5.30;2.00;;;;;;;7.25;100.00;153222.13;5035503;28;20484;-75
2023/12/26 08:43:42;;;;;;;3.70;2.07;;;;;;;7.27;100.00;153228.56;4999667;28;20444;-74
2023/12/26 08:46:08;;;;;;;2.70;1.80;;;;;;;7.29;100.00;153232.44;5018209;28;20456;-74
2023/12/26 08:48:35;;;;;;;2.33;1.70;;;;;;;7.30;100.00;153235.03;5000967;28;20481;-74
2023/12/26 08:51:01;;;;;;;2.93;1.67;;;;;;;7.31;100.00;153238.88;5019420;28;20433;-75
2023/12/26 08:53:28;;;;;;;6.00;2.10;;;;;;;7.33;100.00;153244.03;5017965;28;20467;-75
2023/12/26 08:55:54;;;;;;;3.20;1.77;;;;;;;7.33;100.00;153244.03;4997164;28;20447;-75
2023/12/26 08:58:27;;;;;;;2.30;1.50;;;;;;;7.34;100.00;153246.63;5033736;28;20550;-75
2023/12/26 09:00:53;;;;;;;2.17;1.47;;;;;;;7.40;100.00;153259.53;4998587;28;20562;-75
2023/12/26 09:03:20;;;;;;;4.00;1.50;;;;;;;7.42;100.00;153266.00;5016045;28;20901;-75
2023/12/26 09:05:46;;;;;;;3.40;2.00;;;;;;;7.44;100.00;153269.91;4997925;28;20455;-74
2023/12/26 09:08:12;;;;;;;6.57;2.00;;;;;;;7.45;100.00;153272.47;5017640;28;21009;-75
2023/12/26 09:10:39;;;;;;;5.43;2.13;;;;;;;7.49;100.00;153282.81;5017292;28;20456;-74
2023/12/26 09:13:06;;;;;;;2.83;1.80;;;;;;;7.50;100.00;153286.66;5000818;28;20455;-75
2023/12/26 09:15:34;;;;;;;2.60;1.67;;;;;;;7.50;100.00;153286.66;5017197;28;20736;-75
2023/12/26 09:18:01;;;;;;;5.40;2.30;;;;;;;7.53;100.00;153293.13;5016900;28;20468;-75
2023/12/26 09:20:27;;;;;;;3.60;1.70;;;;;;;7.55;100.00;153299.59;5017700;28;20476;-75
2023/12/26 09:22:54;;;;;;;4.50;1.77;;;;;;;7.55;100.00;153299.59;5018475;28;20455;-75
2023/12/26 09:25:20;;;;;;;2.40;1.97;;;;;;;7.57;100.00;153303.47;5023135;28;20551;-75
2023/12/26 09:27:47;;;;;;;2.60;1.57;;;;;;;7.58;100.00;153306.03;5017531;28;20523;-75
2023/12/26 09:30:14;;;;;;;6.03;2.10;;;;;;;7.58;100.00;153306.03;5017256;28;20842;-75
2023/12/26 09:32:42;;;;;;;3.50;1.93;;;;;;;7.57;100.00;153303.47;5019630;28;20785;-74
2023/12/26 09:35:09;;;;;;;3.33;2.03;;;;;;;7.56;100.00;153300.88;5018494;28;20452;-74
2023/12/26 09:37:38;;;;;;;3.23;1.77;;;;;;;7.58;100.00;153307.34;5005426;28;20464;-74
2023/12/26 09:40:06;;;;;;;2.23;1.50;;;;;;;7.61;100.00;153315.09;4998943;28;20490;-75
2023/12/26 09:42:33;;;;;;;1.73;1.20;;;;;;;7.63;100.00;153318.94;5017983;28;20463;-74
2023/12/26 09:45:00;;;;;;;3.77;1.80;;;;;;;7.65;100.00;153325.41;5018391;28;20506;-76
2023/12/26 09:47:28;;;;;;;3.90;1.93;;;;;;;7.64;100.00;153321.56;5017704;28;20522;-75
2023/12/26 09:49:56;;;;;;;2.97;2.10;;;;;;;7.65;100.00;153325.41;5016268;28;20462;-75
2023/12/26 09:52:23;;;;;;;3.03;1.97;;;;;;;7.69;100.00;153334.47;5021251;28;20475;-75
2023/12/26 09:54:50;;;;;;;3.83;1.70;;;;;;;7.71;100.00;153339.63;5015507;28;20483;-76
2023/12/26 09:57:17;;;;;;;2.60;1.83;;;;;;;7.69;100.00;153334.47;5000013;28;20485;-76
2023/12/26 09:59:44;;;;;;;1.97;1.20;;;;;;;7.73;100.00;153344.81;5017523;28;20448;-77
2023/12/26 10:02:12;;;;;;;2.97;1.93;;;;;;;7.79;100.00;153360.28;5016988;28;20488;-76
2023/12/26 10:04:39;;;;;;;2.10;1.43;;;;;;;7.80;100.00;153362.88;5017671;28;20579;-76
2023/12/26 10:07:09;;;;;;;4.50;1.63;;;;;;;7.83;100.00;153370.66;5016423;28;20440;-76
2023/12/26 10:09:35;;;;;;;2.47;1.60;;;;;;;7.85;100.00;153377.09;5031457;28;20556;-76
2023/12/26 10:12:02;;;;;;;3.97;1.50;;;;;;;7.88;100.00;153384.88;5017510;28;20448;-76
2023/12/26 10:14:30;;;;;;;2.87;1.27;;;;;;;7.89;100.00;153386.13;5016465;28;20487;-77
2023/12/26 10:16:57;;;;;;;4.87;1.80;;;;;;;7.90;100.00;153390.03;5013039;28;20780;-76
2023/12/26 10:19:24;;;;;;;3.40;1.43;;;;;;;7.92;100.00;153393.88;5013124;28;20843;-76
2023/12/26 10:21:51;;;;;;;4.87;1.80;;;;;;;7.93;100.00;153396.47;5016973;28;20837;-77
2023/12/26 10:24:19;;;;;;;2.67;1.50;;;;;;;7.96;100.00;153404.22;5014556;28;20456;-77
2023/12/26 10:26:46;;;;;;;2.60;1.53;;;;;;;8.03;100.00;153421.00;5016763;28;20820;-76
2023/12/26 10:29:13;;;;;;;1.90;1.27;;;;;;;8.05;100.00;153426.22;4998280;28;20832;-77
2023/12/26 10:31:40;;;;;;;1.97;1.50;;;;;;;8.05;100.00;153427.47;5015975;28;20806;-76
2023/12/26 10:34:15;;;;;;;4.27;1.57;;;;;;;8.08;100.00;153435.22;5016164;28;20499;-76
2023/12/26 10:36:43;;;;;;;2.20;1.33;;;;;;;8.10;100.00;153440.38;5031967;28;20452;-77
2023/12/26 10:39:10;;;;;;;2.27;1.40;;;;;;;8.13;100.00;153448.13;5016637;28;20459;-77
2023/12/26 10:41:40;;;;;;;1.80;1.23;;;;;;;8.14;100.00;153450.75;5013228;28;20824;-77
2023/12/26 10:44:07;;;;;;;1.70;1.10;;;;;;;8.15;100.00;153453.34;5017198;28;20478;-77
2023/12/26 10:46:33;;;;;;;2.40;1.47;;;;;;;8.17;100.00;153458.50;5027942;28;20537;-78
2023/12/26 10:49:04;;;;;;;2.77;1.30;;;;;;;8.21;100.00;153468.81;5017237;28;20478;-77
2023/12/26 10:51:31;;;;;;;2.43;1.43;;;;;;;8.25;100.00;153479.19;5016958;28;20548;-76
2023/12/26 10:54:03;;;;;;;4.10;1.43;;;;;;;8.24;100.00;153476.59;5018530;28;20464;-76
2023/12/26 10:56:33;;;;;;;3.10;1.40;;;;;;;8.27;100.00;153484.41;5016145;28;20498;-76
2023/12/26 10:59:02;;;;;;;3.03;1.57;;;;;;;8.31;100.00;153493.47;5019210;28;20918;-77
2023/12/26 11:01:28;;;;;;;1.63;1.13;;;;;;;8.31;100.00;153493.47;5016425;28;20471;-77
2023/12/26 11:03:54;;;;;;;4.47;1.67;;;;;;;8.30;100.00;153492.16;5016858;28;21116;-77
2023/12/26 11:06:20;;;;;;;2.97;1.40;;;;;;;8.31;100.00;153493.47;5012897;28;20918;-77
2023/12/26 11:08:46;;;;;;;3.93;1.73;;;;;;;8.32;100.00;153497.31;5017998;28;20210;-77
2023/12/26 11:11:12;;;;;;;2.47;1.20;;;;;;;8.32;100.00;153496.00;5027470;28;20480;-77
2023/12/26 11:13:39;;;;;;;3.90;1.90;;;;;;;8.31;100.00;153493.47;5016528;28;20337;-76
2023/12/26 11:16:06;;;;;;;4.97;2.60;;;;;;;8.33;100.00;153498.63;5014592;28;20693;-76
2023/12/26 11:18:32;;;;;;;3.23;1.43;;;;;;;8.35;100.00;153505.06;5018144;28;20968;-84
2023/12/26 11:20:59;;;;;;;1.80;1.00;;;;;;;8.38;100.00;153512.84;5019897;28;20473;-86
2023/12/26 11:23:25;;;;;;;2.23;1.40;;;;;;;8.40;100.00;153516.69;5017034;28;20659;-76